Vicksburg, MI (49097)

1:57 AM EDT on September 19, 2014 (GMT -0400)
Austin Lake | Change Station
CLOSE
Current Station
Personal Weather Station
Location: Portage, MI
Elevation: 869 ft
Nearby Weather Stations

Elev 869 ft 42.17 °N, 85.56 °W | Updated 1 second ago

Clear
Clear
55.0 °F
Feels Like 55.0 °F
N
0.0
Wind Variable Wind from SE
Gusts 0.0 mph

Today
High -- | Low -- °F
--% Chance of Precip.
Yesterday
High -- | Low -- °F
Precip. -- in
7:26 AM 7:44 PM
Waning Crescent, 21% visible
Pressure 30.22 in
Visibility 3.0 miles
Clouds Clear
Dew Point 52 °F
Humidity 91%
Rainfall 0.00 in
Snow Depth Not available.
UV 0 out of 12
Pollen 5.60 out of 12
Ozone Good
PM2.5 Good
Flu Activity Not available.
SPECI KAZO 190546Z AUTO 00000KT 3SM BR CLR 09/08 A3022 RMK AO2 T00940083 $

More Conditions Fewer Conditions

Pressure 30.22 in
Visibility 3.0 miles
Clouds Clear
Dew Point 52 °F
Humidity 91%
Rainfall 0.00 in
Snow Depth Not available.
UV 0 out of 12
Pollen 5.60 out of 12
Ozone Good
PM2.5 Good
Flu Activity Not available.
SPECI KAZO 190546Z AUTO 00000KT 3SM BR CLR 09/08 A3022 RMK AO2 T00940083 $

More Conditions Fewer Conditions

10-Day Weather Forecast

Almanac

Astronomy

Sep. 19, 2014 Rise Set
Actual Time 7:26 AM EDT 7:44 PM EDT
Civil Twilight 6:58 AM EDT 8:12 PM EDT
Nautical Twilight 6:25 AM EDT 8:45 PM EDT
Astronomical Twilight 5:51 AM EDT 9:18 PM EDT
Moon 3:07 AM EDT 5:16 PM EDT
Length of Visible Light 13h 14m
Length of Day
12h 18m
Tomorrow will be 2m 48s shorter.
Waning Crescent, 21% of the Moon is Illuminated
Today
Waning Crescent
Sep 24
New
Oct 1
First Quarter
Oct 8
Full
Oct 15
Last Quarter

Today's Extremes

State Highs State Lows

Community

WunderPhotos

Upload Photos

1,754,573 photos uploaded!

Nearby

Air Quality

  Air Quality AQ Index Pollutant
Yesterday Good
PM2.5
Yesterday Good
OZONE
Current Good
PM2.5
Current Good
OZONE
Friday Moderate
PM2.5
Friday Good
OZONE
Saturday Good
OZONE
Saturday Good
PM2.5
Sunday Good
OZONE
Sunday Good
PM2.5
Monday Good
OZONE
Monday Good
PM2.5

Snow Depth

Station Depth Elevation
No new snow has been reported.

Earthquake Activity

City Distance Mag. Time & Date
No recent earthquake activity has been reported nearby.
Minimum magnitude displayed is 2.5.

Coastal Water Temperatures

Place Temperature
No Stations Reporting

Nearby Weather Stations